Power, Montana
Current Conditions -  °F | °C
As of 8:53 PM on Tuesday 21 Oct 2014 (Local Time) from KGTF Reporting Station
Scattered Clouds Scattered Clouds  
Wind Chill: 36°   Ceiling: Unl
Heat Index: 44°   Visibility: 10mi
Dew Point: 39°   Wind: 17mph
Humidity: 82%   Direction: 220°SW
Pressure: 29.86"   Gusts: NA
Location:  47.71°N, 111.69°W
Report Text: KGTF 220253Z 22015KT 10SM SCT110 07/04 A2986 RMK AO2 SLP119 60004 T00670039 51008
Loading
Personal Weather Stations






























Interactive Weather Map New forecast layout! Learn more

10-Day Weather Forecast

Advertisements
Track Severe Weather on mobile